sensor_id;sensor_type;location;lat;lon;timestamp;pressure;altitude;pressure_sealevel;temperature;humidity
32733;BME280;11867;51.198;11.966;2022-09-21T00:05:01;101357.81;;;7.56;100.00
32733;BME280;11867;51.198;11.966;2022-09-21T00:10:05;101367.16;;;7.48;100.00
32733;BME280;11867;51.198;11.966;2022-09-21T00:15:09;101364.19;;;7.97;100.00
32733;BME280;11867;51.198;11.966;2022-09-21T00:20:13;101366.97;;;8.26;100.00
32733;BME280;11867;51.198;11.966;2022-09-21T00:25:18;101354.31;;;8.32;100.00
32733;BME280;11867;51.198;11.966;2022-09-21T00:30:22;101370.94;;;7.95;100.00
32733;BME280;11867;51.198;11.966;2022-09-21T00:35:24;101372.00;;;7.46;100.00
32733;BME280;11867;51.198;11.966;2022-09-21T00:40:27;101370.56;;;8.03;100.00
32733;BME280;11867;51.198;11.966;2022-09-21T00:45:32;101380.97;;;8.58;99.49
32733;BME280;11867;51.198;11.966;2022-09-21T00:50:38;101384.47;;;8.71;97.36
32733;BME280;11867;51.198;11.966;2022-09-21T00:55:47;101377.31;;;8.53;97.60
32733;BME280;11867;51.198;11.966;2022-09-21T01:00:53;101387.69;;;7.56;100.00
32733;BME280;11867;51.198;11.966;2022-09-21T01:05:56;101389.34;;;7.81;100.00
32733;BME280;11867;51.198;11.966;2022-09-21T01:11:16;101390.59;;;8.25;100.00
32733;BME280;11867;51.198;11.966;2022-09-21T01:16:29;101390.88;;;7.88;100.00
32733;BME280;11867;51.198;11.966;2022-09-21T01:21:37;101390.53;;;7.73;100.00
32733;BME280;11867;51.198;11.966;2022-09-21T01:27:06;101389.25;;;7.87;100.00
32733;BME280;11867;51.198;11.966;2022-09-21T01:32:19;101398.31;;;7.70;100.00
32733;BME280;11867;51.198;11.966;2022-09-21T01:37:31;101392.28;;;7.91;100.00
32733;BME280;11867;51.198;11.966;2022-09-21T01:42:38;101394.19;;;8.02;100.00
32733;BME280;11867;51.198;11.966;2022-09-21T01:47:45;101397.59;;;7.98;100.00
32733;BME280;11867;51.198;11.966;2022-09-21T01:52:53;101407.63;;;7.50;100.00
32733;BME280;11867;51.198;11.966;2022-09-21T01:58:03;101404.69;;;7.99;100.00
32733;BME280;11867;51.198;11.966;2022-09-21T02:03:13;101397.03;;;7.72;100.00
32733;BME280;11867;51.198;11.966;2022-09-21T02:08:18;101397.84;;;7.61;100.00
32733;BME280;11867;51.198;11.966;2022-09-21T02:13:23;101401.16;;;7.75;100.00
32733;BME280;11867;51.198;11.966;2022-09-21T02:18:37;101404.88;;;7.26;100.00
32733;BME280;11867;51.198;11.966;2022-09-21T02:23:46;101410.31;;;6.96;100.00
32733;BME280;11867;51.198;11.966;2022-09-21T02:28:58;101412.06;;;6.60;100.00
32733;BME280;11867;51.198;11.966;2022-09-21T02:34:08;101411.66;;;7.05;100.00
32733;BME280;11867;51.198;11.966;2022-09-21T02:39:16;101411.06;;;7.69;100.00
32733;BME280;11867;51.198;11.966;2022-09-21T02:44:24;101409.31;;;7.63;100.00
32733;BME280;11867;51.198;11.966;2022-09-21T02:49:39;101410.72;;;7.65;100.00
32733;BME280;11867;51.198;11.966;2022-09-21T02:54:46;101414.72;;;7.63;100.00
32733;BME280;11867;51.198;11.966;2022-09-21T02:59:51;101412.84;;;6.49;100.00
32733;BME280;11867;51.198;11.966;2022-09-21T03:04:55;101415.44;;;6.74;100.00
32733;BME280;11867;51.198;11.966;2022-09-21T03:09:58;101416.09;;;7.42;100.00
32733;BME280;11867;51.198;11.966;2022-09-21T03:15:00;101424.78;;;6.90;100.00
32733;BME280;11867;51.198;11.966;2022-09-21T03:20:05;101424.38;;;7.47;100.00
32733;BME280;11867;51.198;11.966;2022-09-21T03:25:08;101430.19;;;7.74;100.00
32733;BME280;11867;51.198;11.966;2022-09-21T03:30:12;101438.56;;;7.61;100.00
32733;BME280;11867;51.198;11.966;2022-09-21T03:35:16;101438.19;;;7.03;100.00
32733;BME280;11867;51.198;11.966;2022-09-21T03:40:19;101439.84;;;7.46;100.00
32733;BME280;11867;51.198;11.966;2022-09-21T03:45:22;101443.34;;;7.35;100.00
32733;BME280;11867;51.198;11.966;2022-09-21T03:50:27;101451.84;;;7.39;100.00
32733;BME280;11867;51.198;11.966;2022-09-21T03:55:30;101441.88;;;7.63;99.97
32733;BME280;11867;51.198;11.966;2022-09-21T04:00:33;101436.88;;;7.48;100.00
32733;BME280;11867;51.198;11.966;2022-09-21T04:05:38;101446.22;;;7.10;100.00
32733;BME280;11867;51.198;11.966;2022-09-21T04:10:41;101451.31;;;7.18;100.00
32733;BME280;11867;51.198;11.966;2022-09-21T04:15:44;101450.84;;;6.91;100.00
32733;BME280;11867;51.198;11.966;2022-09-21T04:20:48;101443.34;;;6.75;100.00
32733;BME280;11867;51.198;11.966;2022-09-21T04:25:53;101453.63;;;7.03;100.00
32733;BME280;11867;51.198;11.966;2022-09-21T04:30:56;101451.34;;;7.30;100.00
32733;BME280;11867;51.198;11.966;2022-09-21T04:36:00;101458.56;;;7.06;100.00
32733;BME280;11867;51.198;11.966;2022-09-21T04:41:03;101461.47;;;6.93;100.00
32733;BME280;11867;51.198;11.966;2022-09-21T04:46:06;101453.78;;;6.90;100.00
32733;BME280;11867;51.198;11.966;2022-09-21T04:51:12;101461.94;;;7.20;100.00
32733;BME280;11867;51.198;11.966;2022-09-21T04:56:15;101462.56;;;7.34;100.00
32733;BME280;11867;51.198;11.966;2022-09-21T05:01:18;101470.41;;;7.23;100.00
32733;BME280;11867;51.198;11.966;2022-09-21T05:06:22;101466.72;;;7.48;100.00
32733;BME280;11867;51.198;11.966;2022-09-21T05:11:25;101479.97;;;7.68;98.47
32733;BME280;11867;51.198;11.966;2022-09-21T05:16:28;101476.97;;;7.34;99.97
32733;BME280;11867;51.198;11.966;2022-09-21T05:21:32;101484.44;;;7.51;100.00
32733;BME280;11867;51.198;11.966;2022-09-21T05:26:34;101484.00;;;7.65;99.63
32733;BME280;11867;51.198;11.966;2022-09-21T05:31:43;101485.50;;;7.50;100.00
32733;BME280;11867;51.198;11.966;2022-09-21T05:36:52;101500.81;;;7.86;99.20
32733;BME280;11867;51.198;11.966;2022-09-21T05:42:00;101495.88;;;8.06;97.32
32733;BME280;11867;51.198;11.966;2022-09-21T05:47:08;101501.66;;;7.98;98.79
32733;BME280;11867;51.198;11.966;2022-09-21T05:52:22;101492.91;;;8.55;96.03
32733;BME280;11867;51.198;11.966;2022-09-21T05:57:38;101504.34;;;8.22;96.90
32733;BME280;11867;51.198;11.966;2022-09-21T06:08:31;101501.75;;;8.62;97.76
32733;BME280;11867;51.198;11.966;2022-09-21T06:13:34;101501.91;;;8.96;96.55
32733;BME280;11867;51.198;11.966;2022-09-21T06:18:38;101509.69;;;9.04;96.35
32733;BME280;11867;51.198;11.966;2022-09-21T06:23:42;101516.19;;;8.63;98.83
32733;BME280;11867;51.198;11.966;2022-09-21T06:28:45;101522.94;;;8.60;99.12
32733;BME280;11867;51.198;11.966;2022-09-21T06:33:47;101518.88;;;8.75;100.00
32733;BME280;11867;51.198;11.966;2022-09-21T06:38:51;101520.94;;;8.96;98.48
32733;BME280;11867;51.198;11.966;2022-09-21T06:43:54;101524.81;;;9.41;97.87
32733;BME280;11867;51.198;11.966;2022-09-21T06:48:57;101524.75;;;9.24;97.57
32733;BME280;11867;51.198;11.966;2022-09-21T06:54:01;101521.84;;;9.42;97.41
32733;BME280;11867;51.198;11.966;2022-09-21T06:59:04;101536.53;;;9.41;97.22
32733;BME280;11867;51.198;11.966;2022-09-21T07:04:06;101538.75;;;9.44;97.42
32733;BME280;11867;51.198;11.966;2022-09-21T07:09:11;101540.03;;;9.54;98.32
32733;BME280;11867;51.198;11.966;2022-09-21T07:14:33;101540.84;;;9.54;99.26
32733;BME280;11867;51.198;11.966;2022-09-21T07:19:36;101538.81;;;9.61;98.20
32733;BME280;11867;51.198;11.966;2022-09-21T07:24:40;101542.63;;;9.94;96.29
32733;BME280;11867;51.198;11.966;2022-09-21T07:29:42;101543.06;;;10.03;95.71
32733;BME280;11867;51.198;11.966;2022-09-21T07:34:45;101550.16;;;10.55;94.38
32733;BME280;11867;51.198;11.966;2022-09-21T07:39:49;101550.47;;;10.41;93.63
32733;BME280;11867;51.198;11.966;2022-09-21T07:44:52;101545.13;;;10.46;94.62
32733;BME280;11867;51.198;11.966;2022-09-21T07:50:05;101554.13;;;10.86;91.97
32733;BME280;11867;51.198;11.966;2022-09-21T07:55:09;101552.91;;;11.21;91.41
32733;BME280;11867;51.198;11.966;2022-09-21T08:00:12;101557.00;;;11.45;88.91
32733;BME280;11867;51.198;11.966;2022-09-21T08:05:14;101549.22;;;11.59;88.04
32733;BME280;11867;51.198;11.966;2022-09-21T08:10:18;101551.84;;;11.00;90.59
32733;BME280;11867;51.198;11.966;2022-09-21T08:15:21;101559.47;;;10.98;90.73
32733;BME280;11867;51.198;11.966;2022-09-21T08:20:52;101559.97;;;11.66;87.42
32733;BME280;11867;51.198;11.966;2022-09-21T08:25:58;101553.34;;;11.62;88.64
32733;BME280;11867;51.198;11.966;2022-09-21T08:31:03;101563.03;;;12.02;87.36
32733;BME280;11867;51.198;11.966;2022-09-21T08:36:08;101565.28;;;12.10;86.41
32733;BME280;11867;51.198;11.966;2022-09-21T08:41:16;101566.66;;;12.45;87.23
32733;BME280;11867;51.198;11.966;2022-09-21T08:46:22;101562.44;;;12.69;85.92
32733;BME280;11867;51.198;11.966;2022-09-21T08:51:30;101569.91;;;12.84;84.56
32733;BME280;11867;51.198;11.966;2022-09-21T08:56:35;101563.94;;;12.98;85.33
32733;BME280;11867;51.198;11.966;2022-09-21T09:02:03;101572.19;;;13.03;85.50
32733;BME280;11867;51.198;11.966;2022-09-21T09:07:20;101569.53;;;13.28;84.18
32733;BME280;11867;51.198;11.966;2022-09-21T09:12:37;101569.94;;;13.73;83.00
32733;BME280;11867;51.198;11.966;2022-09-21T09:17:50;101560.84;;;13.47;83.99
32733;BME280;11867;51.198;11.966;2022-09-21T09:23:01;101562.69;;;13.26;84.32
32733;BME280;11867;51.198;11.966;2022-09-21T09:28:16;101555.06;;;13.38;85.74
32733;BME280;11867;51.198;11.966;2022-09-21T09:33:25;101562.28;;;13.90;84.07
32733;BME280;11867;51.198;11.966;2022-09-21T09:38:33;101558.72;;;14.05;84.60
32733;BME280;11867;51.198;11.966;2022-09-21T09:43:51;101555.72;;;14.17;82.47
32733;BME280;11867;51.198;11.966;2022-09-21T09:49:14;101559.56;;;14.16;80.20
32733;BME280;11867;51.198;11.966;2022-09-21T09:54:26;101554.63;;;14.18;81.90
32733;BME280;11867;51.198;11.966;2022-09-21T09:59:33;101558.69;;;14.72;78.39
32733;BME280;11867;51.198;11.966;2022-09-21T10:04:53;101549.53;;;14.97;77.39
32733;BME280;11867;51.198;11.966;2022-09-21T10:09:56;101543.78;;;14.99;79.87
32733;BME280;11867;51.198;11.966;2022-09-21T10:15:00;101543.19;;;15.57;75.73
32733;BME280;11867;51.198;11.966;2022-09-21T10:20:06;101539.19;;;16.95;72.75
32733;BME280;11867;51.198;11.966;2022-09-21T10:25:14;101529.22;;;20.99;60.53
32733;BME280;11867;51.198;11.966;2022-09-21T10:30:33;101529.66;;;24.72;49.95
32733;BME280;11867;51.198;11.966;2022-09-21T10:35:47;101520.44;;;24.47;51.09
32733;BME280;11867;51.198;11.966;2022-09-21T10:40:50;101529.69;;;27.72;45.87
32733;BME280;11867;51.198;11.966;2022-09-21T10:45:55;101527.56;;;25.58;47.26
32733;BME280;11867;51.198;11.966;2022-09-21T10:50:58;101522.94;;;25.22;47.48
32733;BME280;11867;51.198;11.966;2022-09-21T10:56:03;101527.22;;;25.88;47.13
32733;BME280;11867;51.198;11.966;2022-09-21T11:01:26;101513.69;;;30.50;42.28
32733;BME280;11867;51.198;11.966;2022-09-21T11:06:34;101516.44;;;30.02;38.24
32733;BME280;11867;51.198;11.966;2022-09-21T11:11:45;101513.50;;;25.27;43.91
32733;BME280;11867;51.198;11.966;2022-09-21T11:16:55;101530.34;;;22.85;48.32
32733;BME280;11867;51.198;11.966;2022-09-21T11:22:03;101522.00;;;21.73;52.14
32733;BME280;11867;51.198;11.966;2022-09-21T11:27:12;101518.03;;;21.13;52.35
32733;BME280;11867;51.198;11.966;2022-09-21T11:32:30;101516.00;;;20.16;53.35
32733;BME280;11867;51.198;11.966;2022-09-21T11:37:48;101510.72;;;21.43;52.63
32733;BME280;11867;51.198;11.966;2022-09-21T11:43:02;101509.97;;;20.14;52.18
32733;BME280;11867;51.198;11.966;2022-09-21T11:48:20;101498.66;;;24.03;44.06
32733;BME280;11867;51.198;11.966;2022-09-21T11:53:37;101493.81;;;29.87;39.88
32733;BME280;11867;51.198;11.966;2022-09-21T11:58:48;101496.47;;;31.21;36.75
32733;BME280;11867;51.198;11.966;2022-09-21T12:04:11;101479.69;;;29.84;37.58
32733;BME280;11867;51.198;11.966;2022-09-21T12:14:45;101481.41;;;24.47;44.03
32733;BME280;11867;51.198;11.966;2022-09-21T12:20:00;101463.38;;;30.45;36.37
32733;BME280;11867;51.198;11.966;2022-09-21T12:25:12;101472.75;;;26.26;41.35
32733;BME280;11867;51.198;11.966;2022-09-21T12:30:19;101474.13;;;23.84;46.12
32733;BME280;11867;51.198;11.966;2022-09-21T12:35:33;101474.38;;;22.27;49.28
32733;BME280;11867;51.198;11.966;2022-09-21T12:40:38;101473.78;;;21.16;49.85
32733;BME280;11867;51.198;11.966;2022-09-21T12:45:49;101466.13;;;20.07;51.21
32733;BME280;11867;51.198;11.966;2022-09-21T12:50:56;101470.53;;;19.86;53.02
32733;BME280;11867;51.198;11.966;2022-09-21T12:56:11;101466.28;;;19.21;53.30
32733;BME280;11867;51.198;11.966;2022-09-21T13:01:23;101473.97;;;19.10;54.54
32733;BME280;11867;51.198;11.966;2022-09-21T13:06:56;101470.13;;;18.97;55.40
32733;BME280;11867;51.198;11.966;2022-09-21T13:12:07;101462.34;;;18.99;57.12
32733;BME280;11867;51.198;11.966;2022-09-21T13:17:20;101454.97;;;19.08;56.73
32733;BME280;11867;51.198;11.966;2022-09-21T13:22:27;101464.56;;;19.47;55.67
32733;BME280;11867;51.198;11.966;2022-09-21T13:28:00;101455.75;;;19.68;55.71
32733;BME280;11867;51.198;11.966;2022-09-21T13:33:29;101449.81;;;20.46;53.84
32733;BME280;11867;51.198;11.966;2022-09-21T13:38:55;101454.66;;;22.02;50.34
32733;BME280;11867;51.198;11.966;2022-09-21T13:44:00;101437.78;;;23.81;47.13
32733;BME280;11867;51.198;11.966;2022-09-21T13:49:15;101434.44;;;29.58;38.75
32733;BME280;11867;51.198;11.966;2022-09-21T13:54:23;101425.44;;;32.43;35.80
32733;BME280;11867;51.198;11.966;2022-09-21T13:59:27;101426.41;;;30.46;36.36
32733;BME280;11867;51.198;11.966;2022-09-21T14:04:32;101417.38;;;32.34;34.63
32733;BME280;11867;51.198;11.966;2022-09-21T14:09:41;101416.50;;;31.47;36.12
32733;BME280;11867;51.198;11.966;2022-09-21T14:15:08;101406.88;;;32.60;34.21
32733;BME280;11867;51.198;11.966;2022-09-21T14:20:26;101416.59;;;32.26;33.89
32733;BME280;11867;51.198;11.966;2022-09-21T14:25:49;101407.28;;;32.62;34.16
32733;BME280;11867;51.198;11.966;2022-09-21T14:30:55;101395.72;;;33.96;34.18
32733;BME280;11867;51.198;11.966;2022-09-21T14:36:06;101401.97;;;31.38;35.58
32733;BME280;11867;51.198;11.966;2022-09-21T14:41:15;101398.38;;;31.52;34.38
32733;BME280;11867;51.198;11.966;2022-09-21T14:46:33;101393.94;;;31.54;35.88
32733;BME280;11867;51.198;11.966;2022-09-21T14:51:43;101383.38;;;32.91;33.52
32733;BME280;11867;51.198;11.966;2022-09-21T14:57:14;101384.78;;;30.77;36.49
32733;BME280;11867;51.198;11.966;2022-09-21T15:02:21;101387.44;;;29.96;36.95
32733;BME280;11867;51.198;11.966;2022-09-21T15:07:37;101391.75;;;25.66;41.03
32733;BME280;11867;51.198;11.966;2022-09-21T15:13:09;101376.44;;;24.26;45.31
32733;BME280;11867;51.198;11.966;2022-09-21T15:18:15;101378.88;;;24.03;46.81
32733;BME280;11867;51.198;11.966;2022-09-21T15:23:23;101374.69;;;23.51;45.76
32733;BME280;11867;51.198;11.966;2022-09-21T15:28:34;101370.19;;;20.60;51.37
32733;BME280;11867;51.198;11.966;2022-09-21T15:33:59;101367.78;;;20.85;50.89
32733;BME280;11867;51.198;11.966;2022-09-21T15:39:03;101366.16;;;20.18;53.14
32733;BME280;11867;51.198;11.966;2022-09-21T15:44:14;101362.16;;;18.93;56.34
32733;BME280;11867;51.198;11.966;2022-09-21T15:49:18;101369.50;;;19.97;51.58
32733;BME280;11867;51.198;11.966;2022-09-21T15:54:28;101371.00;;;20.03;51.28
32733;BME280;11867;51.198;11.966;2022-09-21T15:59:33;101372.53;;;20.18;52.99
32733;BME280;11867;51.198;11.966;2022-09-21T16:04:44;101366.56;;;19.93;52.59
32733;BME280;11867;51.198;11.966;2022-09-21T16:09:51;101363.56;;;19.81;51.58
32733;BME280;11867;51.198;11.966;2022-09-21T16:14:58;101369.28;;;19.31;53.54
32733;BME280;11867;51.198;11.966;2022-09-21T16:20:14;101375.16;;;19.15;53.53
32733;BME280;11867;51.198;11.966;2022-09-21T16:25:23;101382.59;;;19.06;55.56
32733;BME280;11867;51.198;11.966;2022-09-21T16:30:40;101381.94;;;19.09;53.89
32733;BME280;11867;51.198;11.966;2022-09-21T16:35:45;101381.38;;;18.99;54.95
32733;BME280;11867;51.198;11.966;2022-09-21T16:40:47;101374.88;;;19.17;55.01
32733;BME280;11867;51.198;11.966;2022-09-21T16:45:53;101384.41;;;19.11;56.13
32733;BME280;11867;51.198;11.966;2022-09-21T16:50:58;101380.81;;;18.60;58.05
32733;BME280;11867;51.198;11.966;2022-09-21T16:56:01;101390.06;;;18.14;59.20
32733;BME280;11867;51.198;11.966;2022-09-21T17:01:09;101392.69;;;17.91;59.97
32733;BME280;11867;51.198;11.966;2022-09-21T17:06:15;101392.38;;;17.46;62.90
32733;BME280;11867;51.198;11.966;2022-09-21T17:11:20;101394.72;;;16.15;68.14
32733;BME280;11867;51.198;11.966;2022-09-21T17:16:31;101388.56;;;15.41;71.58
32733;BME280;11867;51.198;11.966;2022-09-21T17:21:34;101385.03;;;15.01;73.33
32733;BME280;11867;51.198;11.966;2022-09-21T17:26:36;101389.06;;;13.73;80.12
32733;BME280;11867;51.198;11.966;2022-09-21T17:31:40;101392.31;;;13.90;79.94
32733;BME280;11867;51.198;11.966;2022-09-21T17:36:43;101395.59;;;13.16;83.46
32733;BME280;11867;51.198;11.966;2022-09-21T17:41:52;101399.00;;;12.49;86.04
32733;BME280;11867;51.198;11.966;2022-09-21T17:47:03;101396.69;;;13.09;84.39
32733;BME280;11867;51.198;11.966;2022-09-21T17:52:14;101402.53;;;12.45;86.55
32733;BME280;11867;51.198;11.966;2022-09-21T17:57:47;101404.44;;;11.91;91.96
32733;BME280;11867;51.198;11.966;2022-09-21T18:02:54;101413.66;;;11.85;92.25
32733;BME280;11867;51.198;11.966;2022-09-21T18:07:57;101407.75;;;12.46;88.93
32733;BME280;11867;51.198;11.966;2022-09-21T18:13:18;101418.38;;;11.25;95.03
32733;BME280;11867;51.198;11.966;2022-09-21T18:18:36;101416.97;;;11.55;93.80
32733;BME280;11867;51.198;11.966;2022-09-21T18:23:51;101427.09;;;11.55;94.64
32733;BME280;11867;51.198;11.966;2022-09-21T18:28:56;101425.66;;;10.65;99.81
32733;BME280;11867;51.198;11.966;2022-09-21T18:34:14;101422.59;;;11.76;92.62
32733;BME280;11867;51.198;11.966;2022-09-21T18:39:29;101429.84;;;11.92;91.00
32733;BME280;11867;51.198;11.966;2022-09-21T18:44:38;101431.28;;;12.00;89.78
32733;BME280;11867;51.198;11.966;2022-09-21T18:49:53;101428.03;;;10.84;97.26
32733;BME280;11867;51.198;11.966;2022-09-21T18:54:57;101435.22;;;10.29;100.00
32733;BME280;11867;51.198;11.966;2022-09-21T18:59:59;101433.09;;;10.48;100.00
32733;BME280;11867;51.198;11.966;2022-09-21T19:05:05;101436.91;;;10.52;99.74
32733;BME280;11867;51.198;11.966;2022-09-21T19:10:13;101434.41;;;11.17;95.56
32733;BME280;11867;51.198;11.966;2022-09-21T19:15:23;101438.31;;;10.33;100.00
32733;BME280;11867;51.198;11.966;2022-09-21T19:20:56;101428.50;;;10.32;100.00
32733;BME280;11867;51.198;11.966;2022-09-21T19:26:09;101443.91;;;10.43;100.00
32733;BME280;11867;51.198;11.966;2022-09-21T19:31:15;101437.44;;;10.49;98.32
32733;BME280;11867;51.198;11.966;2022-09-21T19:36:20;101452.47;;;9.96;100.00
32733;BME280;11867;51.198;11.966;2022-09-21T19:41:39;101434.22;;;10.13;100.00
32733;BME280;11867;51.198;11.966;2022-09-21T19:46:52;101434.06;;;11.13;94.46
32733;BME280;11867;51.198;11.966;2022-09-21T19:52:02;101437.44;;;10.49;96.33
32733;BME280;11867;51.198;11.966;2022-09-21T19:57:11;101445.44;;;9.32;100.00
32733;BME280;11867;51.198;11.966;2022-09-21T20:02:34;101441.09;;;9.48;100.00
32733;BME280;11867;51.198;11.966;2022-09-21T20:07:46;101443.22;;;9.46;100.00
32733;BME280;11867;51.198;11.966;2022-09-21T20:12:59;101438.59;;;9.29;100.00
32733;BME280;11867;51.198;11.966;2022-09-21T20:18:19;101437.00;;;10.18;100.00
32733;BME280;11867;51.198;11.966;2022-09-21T20:23:28;101427.34;;;10.10;99.89
32733;BME280;11867;51.198;11.966;2022-09-21T20:28:31;101436.69;;;9.30;100.00
32733;BME280;11867;51.198;11.966;2022-09-21T20:33:33;101429.97;;;8.75;100.00
32733;BME280;11867;51.198;11.966;2022-09-21T20:38:38;101436.91;;;9.74;100.00
32733;BME280;11867;51.198;11.966;2022-09-21T20:43:41;101434.06;;;9.69;100.00
32733;BME280;11867;51.198;11.966;2022-09-21T20:48:43;101428.63;;;9.69;100.00
32733;BME280;11867;51.198;11.966;2022-09-21T20:53:48;101429.47;;;9.86;100.00
32733;BME280;11867;51.198;11.966;2022-09-21T20:58:51;101435.69;;;10.04;98.04
32733;BME280;11867;51.198;11.966;2022-09-21T21:03:54;101435.88;;;9.97;97.00
32733;BME280;11867;51.198;11.966;2022-09-21T21:09:03;101431.59;;;8.47;100.00
32733;BME280;11867;51.198;11.966;2022-09-21T21:14:06;101438.16;;;8.63;100.00
32733;BME280;11867;51.198;11.966;2022-09-21T21:19:08;101432.78;;;8.52;100.00
32733;BME280;11867;51.198;11.966;2022-09-21T21:24:13;101431.72;;;8.29;100.00
32733;BME280;11867;51.198;11.966;2022-09-21T21:29:33;101434.91;;;8.14;100.00
32733;BME280;11867;51.198;11.966;2022-09-21T21:34:35;101431.00;;;8.86;100.00
32733;BME280;11867;51.198;11.966;2022-09-21T21:39:40;101425.00;;;9.46;99.83
32733;BME280;11867;51.198;11.966;2022-09-21T21:44:43;101427.13;;;8.70;100.00
32733;BME280;11867;51.198;11.966;2022-09-21T21:49:47;101425.47;;;9.09;100.00
32733;BME280;11867;51.198;11.966;2022-09-21T21:54:51;101434.59;;;8.75;100.00
32733;BME280;11867;51.198;11.966;2022-09-21T21:59:53;101433.97;;;9.30;100.00
32733;BME280;11867;51.198;11.966;2022-09-21T22:04:56;101436.28;;;8.93;99.75
32733;BME280;11867;51.198;11.966;2022-09-21T22:10:00;101432.75;;;9.38;98.77
32733;BME280;11867;51.198;11.966;2022-09-21T22:15:03;101439.59;;;9.40;97.37
32733;BME280;11867;51.198;11.966;2022-09-21T22:20:07;101426.84;;;8.55;100.00
32733;BME280;11867;51.198;11.966;2022-09-21T22:25:12;101431.38;;;8.14;100.00
32733;BME280;11867;51.198;11.966;2022-09-21T22:30:14;101435.13;;;8.88;100.00
32733;BME280;11867;51.198;11.966;2022-09-21T22:35:17;101434.94;;;9.24;98.17
32733;BME280;11867;51.198;11.966;2022-09-21T22:40:21;101429.47;;;9.53;95.83
32733;BME280;11867;51.198;11.966;2022-09-21T22:45:24;101434.25;;;8.59;100.00
32733;BME280;11867;51.198;11.966;2022-09-21T22:50:27;101429.13;;;7.87;100.00
32733;BME280;11867;51.198;11.966;2022-09-21T22:55:32;101418.13;;;8.17;100.00
32733;BME280;11867;51.198;11.966;2022-09-21T23:00:34;101426.38;;;8.86;100.00
32733;BME280;11867;51.198;11.966;2022-09-21T23:05:37;101431.06;;;9.20;96.96
32733;BME280;11867;51.198;11.966;2022-09-21T23:10:41;101428.41;;;9.08;97.13
32733;BME280;11867;51.198;11.966;2022-09-21T23:15:43;101423.13;;;9.01;96.54
32733;BME280;11867;51.198;11.966;2022-09-21T23:20:55;101406.69;;;7.56;100.00
32733;BME280;11867;51.198;11.966;2022-09-21T23:26:03;101412.25;;;7.85;100.00
32733;BME280;11867;51.198;11.966;2022-09-21T23:31:09;101414.34;;;8.42;100.00
32733;BME280;11867;51.198;11.966;2022-09-21T23:36:14;101419.50;;;8.96;96.13
32733;BME280;11867;51.198;11.966;2022-09-21T23:41:20;101412.28;;;9.18;94.99
32733;BME280;11867;51.198;11.966;2022-09-21T23:46:25;101411.94;;;9.15;94.20
32733;BME280;11867;51.198;11.966;2022-09-21T23:51:28;101422.44;;;9.23;93.20
32733;BME280;11867;51.198;11.966;2022-09-21T23:56:32;101416.91;;;9.18;92.97
